Bahia - Jorge Amado Airport


Codes: SBIL/IOS
Name: Bahia - Jorge Amado Airport
City: Ilheus
Country: Brazil
Elevation: 15 ft.

Photos at Bahia - Jorge Amado Airport


   Photos courtesy of SpottingLog. You can add your own sightings and photos by signing up for a free trial today.



No photos found.

Weather at Bahia - Jorge Amado Airport


Time (UTC)DescriptionTempratureWindCloud coverageVisibilityPressureHumidity
18-Apr-2024 00:00Broken Clouds26°C4 mph, S52%10000m1013hPa76%
18-Apr-2024 03:00Scattered Clouds24°C4 mph, SW26%10000m1013hPa82%
18-Apr-2024 06:00Clear Sky21°C4 mph, SW6%10000m1012hPa89%
18-Apr-2024 09:00Few Clouds21°C4 mph, SW24%10000m1013hPa88%
18-Apr-2024 12:00Scattered Clouds28°C2 mph, S33%10000m1015hPa64%
18-Apr-2024 15:00Scattered Clouds29°C7 mph, SE47%10000m1013hPa66%
18-Apr-2024 18:00Scattered Clouds28°C7 mph, SE46%10000m1011hPa69%
18-Apr-2024 21:00Light Rain25°C7 mph, SE11%10000m1012hPa85%
19-Apr-2024 00:00Light Rain25°C4 mph, SE23%10000m1014hPa89%
19-Apr-2024 03:00Light Rain25°C4 mph, SE92%10000m1014hPa89%
19-Apr-2024 06:00Light Rain25°C4 mph, SE96%10000m1013hPa88%
19-Apr-2024 09:00Light Rain25°C4 mph, SE96%10000m1014hPa88%
19-Apr-2024 12:00Light Rain27°C7 mph, SE93%10000m1015hPa83%
19-Apr-2024 15:00Light Rain29°C9 mph, SE20%10000m1014hPa65%
19-Apr-2024 18:00Scattered Clouds28°C9 mph, SE30%10000m1013hPa67%
19-Apr-2024 21:00Clear Sky26°C9 mph, SE9%10000m1014hPa77%
20-Apr-2024 00:00Light Rain25°C7 mph, S15%10000m1016hPa84%
20-Apr-2024 03:00Light Rain24°C7 mph, S84%10000m1015hPa90%
20-Apr-2024 06:00Light Rain24°C7 mph, S78%10000m1014hPa92%
20-Apr-2024 09:00Light Rain23°C9 mph, S94%10000m1016hPa95%
20-Apr-2024 12:00Light Rain26°C9 mph, S81%10000m1017hPa80%
20-Apr-2024 15:00Light Rain29°C11 mph, SE76%10000m1016hPa65%
20-Apr-2024 18:00Broken Clouds28°C11 mph, SE75%10000m1014hPa63%
20-Apr-2024 21:00Broken Clouds26°C11 mph, S84%10000m1015hPa74%
21-Apr-2024 00:00Broken Clouds24°C9 mph, S65%10000m1016hPa91%
21-Apr-2024 03:00Light Rain24°C7 mph, S70%6879m1016hPa88%
21-Apr-2024 06:00Light Rain23°C9 mph, SW81%4845m1014hPa94%
21-Apr-2024 09:00Overcast Clouds22°C9 mph, SW100%10000m1015hPa97%
21-Apr-2024 12:00Light Rain25°C9 mph, S100%10000m1016hPa87%
21-Apr-2024 15:00Light Rain28°C11 mph, S96%10000m1015hPa75%
21-Apr-2024 18:00Light Rain27°C13 mph, S95%10000m1013hPa78%
21-Apr-2024 21:00Light Rain25°C11 mph, S64%10000m1014hPa89%
22-Apr-2024 00:00Light Rain24°C9 mph, S69%8596m1015hPa92%
22-Apr-2024 03:00Moderate Rain23°C9 mph, SW87%2657m1014hPa94%
22-Apr-2024 06:00Light Rain23°C9 mph, SW90%10000m1013hPa97%
22-Apr-2024 09:00Light Rain23°C9 mph, SW89%10000m1014hPa96%
22-Apr-2024 12:00Light Rain25°C9 mph, S87%10000m1016hPa87%
22-Apr-2024 15:00Light Rain27°C9 mph, S27%9973m1014hPa81%
22-Apr-2024 18:00Light Rain27°C9 mph, S23%10000m1012hPa86%
22-Apr-2024 21:00Light Rain25°C7 mph, S2%10000m1013hPa89%